Terminal Aerodrome Forecast
Issued by NWS

Home | Current Version | Previous Version | Text Only | Print | Product List | Glossary On
Versions: 1 2 3 4 5 6 7 8 9 10 11 12 13 14 15 16 17 18 19 20 21 22 23 24 25 26 27 28 29 30 31 32 33 34
665
FTUS45 KBOU 222321
TAFAPA
TAF
KAPA 222321Z 2300/2324 34007KT P6SM SCT100 SCT150 BKN220
     FM230200 10007KT P6SM FEW100 SCT140
     FM230300 14009KT P6SM FEW140 SCT220
     FM230600 18008KT P6SM FEW140 SCT220
     FM231500 VRB05KT P6SM FEW140 SCT220
     FM231900 15007KT P6SM SCT100 SCT220=

USA.gov is the U.S. government's official web portal to all federal, state and local government web resources and services.